createdAt,value
2019-02-02T00:00:51.588Z,0.4
2019-02-02T00:01:51.513Z,0.4
2019-02-02T00:02:51.399Z,0.4
2019-02-02T00:03:51.277Z,0.4
2019-02-02T00:04:51.157Z,0.4
2019-02-02T00:05:51.051Z,0.5
2019-02-02T00:06:50.940Z,0.5
2019-02-02T00:07:50.850Z,0.5
2019-02-02T00:08:50.746Z,0.5
2019-02-02T00:09:50.654Z,0.6
2019-02-02T00:10:50.967Z,0.5
2019-02-02T00:11:50.862Z,0.6
2019-02-02T00:12:50.776Z,0.6
2019-02-02T00:13:50.690Z,0.6
2019-02-02T00:14:50.587Z,0.5
2019-02-02T00:15:50.478Z,0.5
2019-02-02T00:16:50.365Z,0.5
2019-02-02T00:17:50.436Z,0.5
2019-02-02T00:18:50.319Z,0.5
2019-02-02T00:19:50.216Z,0.4
2019-02-02T00:20:50.666Z,0.4
2019-02-02T00:21:50.584Z,0.4
2019-02-02T00:22:50.561Z,0.4
2019-02-02T00:23:50.474Z,0.4
2019-02-02T00:24:50.352Z,0.4
2019-02-02T00:25:50.257Z,0.4
2019-02-02T00:26:50.154Z,0.4
2019-02-02T00:27:50.050Z,0.4
2019-02-02T00:28:49.938Z,0.4
2019-02-02T00:29:49.967Z,0.4
2019-02-02T00:30:50.297Z,0.4
2019-02-02T00:31:50.199Z,0.4
2019-02-02T00:32:50.117Z,0.3
2019-02-02T00:36:49.444Z,0.8
2019-02-02T00:37:49.360Z,1
2019-02-02T00:40:49.181Z,1.2
2019-02-02T00:41:49.108Z,1.2
2019-02-02T00:42:49.017Z,1.2
2019-02-02T00:43:48.900Z,1.1
2019-02-02T00:44:48.798Z,1
2019-02-02T00:45:48.678Z,1
2019-02-02T00:46:48.584Z,0.9
2019-02-02T00:47:48.507Z,0.9
2019-02-02T00:48:48.398Z,0.8
2019-02-02T00:49:48.385Z,0.8
2019-02-02T00:50:48.711Z,0.8
2019-02-02T00:51:48.590Z,0.7
2019-02-02T00:52:48.634Z,0.8
2019-02-02T00:53:48.523Z,0.8
2019-02-02T00:54:48.438Z,0.7
2019-02-02T00:55:48.326Z,0.7
2019-02-02T00:56:48.218Z,0.6
2019-02-02T00:57:54.556Z,0.6
2019-02-02T00:58:54.444Z,0.5
2019-02-02T00:59:54.364Z,0.4
2019-02-02T01:00:54.908Z,0.4
2019-02-02T01:01:54.796Z,0.4
2019-02-02T01:02:54.684Z,0.4
2019-02-02T01:03:54.592Z,0.4
2019-02-02T01:04:54.492Z,0.4
2019-02-02T01:05:54.555Z,0.4
2019-02-02T01:06:54.446Z,0.4
2019-02-02T01:07:54.343Z,0.4
2019-02-02T01:08:54.240Z,0.5
2019-02-02T01:09:54.132Z,0.5
2019-02-02T01:10:54.452Z,0.5
2019-02-02T01:11:54.368Z,0.5
2019-02-02T01:12:54.263Z,0.5
2019-02-02T01:13:54.156Z,0.5
2019-02-02T01:14:54.052Z,0.5
2019-02-02T01:15:53.942Z,0.6
2019-02-02T01:16:53.853Z,0.5
2019-02-02T01:17:53.778Z,0.6
2019-02-02T01:18:53.796Z,0.5
2019-02-02T01:19:53.698Z,0.5
2019-02-02T01:20:54.036Z,0.5
2019-02-02T01:21:53.908Z,0.6
2019-02-02T01:22:53.800Z,0.6
2019-02-02T01:23:54.068Z,0.6
2019-02-02T01:24:53.980Z,0.7
2019-02-02T01:25:53.882Z,0.7
2019-02-02T01:26:53.774Z,0.7
2019-02-02T01:28:06.145Z,0.8
2019-02-02T01:29:06.037Z,0.8
2019-02-02T01:30:05.903Z,0.8
2019-02-02T01:31:06.236Z,0.8
2019-02-02T01:32:06.122Z,0.8
2019-02-02T01:33:06.042Z,0.8
2019-02-02T01:34:05.968Z,0.9
2019-02-02T01:35:05.842Z,0.9
2019-02-02T01:36:05.844Z,0.9
2019-02-02T01:37:05.727Z,0.9
2019-02-02T01:38:05.792Z,0.9
2019-02-02T01:39:05.688Z,0.9
2019-02-02T01:40:05.597Z,0.9
2019-02-02T01:41:05.894Z,0.9
2019-02-02T01:42:05.804Z,1
2019-02-02T01:43:05.696Z,1
2019-02-02T01:44:05.580Z,1
2019-02-02T01:45:05.490Z,1
2019-02-02T01:46:05.376Z,1
2019-02-02T01:47:05.252Z,1
2019-02-02T01:48:05.154Z,1
2019-02-02T01:49:05.040Z,1
2019-02-02T01:50:04.939Z,1
2019-02-02T01:51:05.288Z,1
2019-02-02T01:52:05.156Z,1
2019-02-02T01:53:05.060Z,1
2019-02-02T01:54:04.970Z,1
2019-02-02T01:55:04.982Z,1
2019-02-02T01:56:04.884Z,1
2019-02-02T01:57:04.883Z,0.9
2019-02-02T01:58:17.258Z,0.9
2019-02-02T01:59:17.161Z,0.9
2019-02-02T02:00:17.068Z,0.8
2019-02-02T02:01:17.370Z,0.9
2019-02-02T02:02:17.377Z,0.9
2019-02-02T02:03:17.266Z,0.8
2019-02-02T02:04:17.166Z,0.8
2019-02-02T02:05:17.106Z,0.8
2019-02-02T02:06:17.116Z,0.8
2019-02-02T02:07:17.002Z,0.8
2019-02-02T02:08:16.896Z,0.8
2019-02-02T02:09:16.790Z,0.8
2019-02-02T02:10:16.699Z,0.8
2019-02-02T02:11:17.208Z,0.8
2019-02-02T02:12:17.098Z,0.8
2019-02-02T02:13:16.988Z,0.8
2019-02-02T02:14:16.878Z,0.8
2019-02-02T02:15:16.774Z,0.8
2019-02-02T02:16:16.653Z,0.8
2019-02-02T02:17:16.597Z,0.8
2019-02-02T02:18:16.480Z,0.8
2019-02-02T02:19:16.366Z,0.9
2019-02-02T02:20:16.358Z,0.8
2019-02-02T02:21:16.687Z,0.8
2019-02-02T02:22:16.588Z,0.9
2019-02-02T02:23:16.472Z,0.9
2019-02-02T02:24:16.382Z,0.9
2019-02-02T02:25:16.304Z,0.9
2019-02-02T02:26:16.218Z,0.9
2019-02-02T02:27:16.106Z,0.9
2019-02-02T02:28:27.338Z,1
2019-02-02T02:29:28.354Z,0.9
2019-02-02T02:30:28.268Z,1
2019-02-02T02:31:28.622Z,1
2019-02-02T02:32:28.523Z,0.9
2019-02-02T02:33:28.435Z,0.9
2019-02-02T02:34:28.307Z,0.9
2019-02-02T02:35:28.213Z,0.9
2019-02-02T02:36:28.361Z,1
2019-02-02T02:37:28.268Z,1
2019-02-02T02:38:28.176Z,0.9
2019-02-02T02:39:28.044Z,0.9
2019-02-02T02:40:27.952Z,0.9
2019-02-02T02:41:28.313Z,0.9
2019-02-02T02:42:28.221Z,1
2019-02-02T02:43:28.132Z,1
2019-02-02T02:44:28.090Z,1.1
2019-02-02T02:45:27.986Z,1.2
2019-02-02T02:46:27.888Z,1.2
2019-02-02T02:47:27.905Z,1.2
2019-02-02T02:48:28.190Z,1.2
2019-02-02T02:49:28.069Z,1.2
2019-02-02T02:50:27.969Z,1.2
2019-02-02T02:51:28.293Z,1.2
2019-02-02T02:52:28.232Z,1.2
2019-02-02T02:53:28.131Z,1.3
2019-02-02T02:58:26.966Z,1.8
2019-02-02T03:01:26.799Z,2.1
2019-02-02T03:02:26.694Z,2
2019-02-02T03:03:26.605Z,2
2019-02-02T03:04:26.482Z,2
2019-02-02T03:05:26.366Z,2
2019-02-02T03:06:26.255Z,1.9
2019-02-02T03:07:26.166Z,1.9
2019-02-02T03:08:26.107Z,1.9
2019-02-02T03:09:26.157Z,1.9
2019-02-02T03:10:26.116Z,1.9
2019-02-02T03:11:26.553Z,1.8
2019-02-02T03:12:26.472Z,1.8
2019-02-02T03:13:26.390Z,1.8
2019-02-02T03:14:26.332Z,1.8
2019-02-02T03:15:26.470Z,1.8
2019-02-02T03:16:26.357Z,1.8
2019-02-02T03:17:26.257Z,1.8
2019-02-02T03:18:26.152Z,1.8
2019-02-02T03:19:26.054Z,1.7
2019-02-02T03:20:25.946Z,1.7
2019-02-02T03:21:26.597Z,1.7
2019-02-02T03:22:26.504Z,1.7
2019-02-02T03:23:26.387Z,1.7
2019-02-02T03:24:26.383Z,1.6
2019-02-02T03:25:26.282Z,1.6
2019-02-02T03:26:26.179Z,1.7
2019-02-02T03:27:26.141Z,1.6
2019-02-02T03:28:26.031Z,1.7
2019-02-02T03:29:25.965Z,1.7
2019-02-02T03:30:25.950Z,1.7
2019-02-02T03:31:26.373Z,1.7
2019-02-02T03:32:26.379Z,1.7
2019-02-02T03:33:26.364Z,1.7
2019-02-02T03:36:26.033Z,1.9
2019-02-02T03:39:25.502Z,2.1
2019-02-02T03:40:25.429Z,2.2
2019-02-02T03:41:25.739Z,2.2
2019-02-02T03:42:25.659Z,2.2
2019-02-02T03:43:25.534Z,2.2
2019-02-02T03:44:25.466Z,2.2
2019-02-02T03:45:25.377Z,2.3
2019-02-02T03:46:25.282Z,2.3
2019-02-02T03:47:25.171Z,2.2
2019-02-02T03:48:25.197Z,2.2
2019-02-02T03:49:25.117Z,2.2
2019-02-02T03:50:25.059Z,2.1
2019-02-02T03:51:25.353Z,2.1
2019-02-02T03:52:25.245Z,2.1
2019-02-02T03:53:25.139Z,2.1
2019-02-02T03:54:25.065Z,2.1
2019-02-02T03:55:25.015Z,2.1
2019-02-02T03:56:24.923Z,2.2
2019-02-02T03:58:24.535Z,2.2
2019-02-02T03:59:24.421Z,2.3
2019-02-02T04:00:24.345Z,2.4
2019-02-02T04:01:24.776Z,2.4
2019-02-02T04:02:24.699Z,2.4
2019-02-02T04:04:24.551Z,2.4
2019-02-02T04:05:24.454Z,2.4
2019-02-02T04:06:24.359Z,2.4
2019-02-02T04:07:24.316Z,2.4
2019-02-02T04:09:23.971Z,2.4
2019-02-02T04:10:23.889Z,2.4
2019-02-02T04:11:24.465Z,2.4
2019-02-02T04:12:24.339Z,2.4
2019-02-02T04:13:24.225Z,2.3
2019-02-02T04:14:24.127Z,2.3
2019-02-02T04:15:24.082Z,2.3
2019-02-02T04:16:24.029Z,2.4
2019-02-02T04:17:23.926Z,2.4
2019-02-02T04:18:23.854Z,2.4
2019-02-02T04:19:23.761Z,2.4
2019-02-02T04:20:23.659Z,2.3
2019-02-02T04:21:23.973Z,2.3
2019-02-02T04:22:23.844Z,2.4
2019-02-02T04:23:23.771Z,2.4
2019-02-02T04:24:23.667Z,2.4
2019-02-02T04:25:23.569Z,2.3
2019-02-02T04:26:23.467Z,2.5
2019-02-02T04:27:23.329Z,2.5
2019-02-02T04:28:23.213Z,2.5
2019-02-02T04:29:23.126Z,2.5
2019-02-02T04:30:22.999Z,2.5
2019-02-02T04:31:23.323Z,2.5
2019-02-02T04:32:23.205Z,2.6
2019-02-02T04:33:23.093Z,2.6
2019-02-02T04:34:23.009Z,2.6
2019-02-02T04:35:22.898Z,2.6
2019-02-02T04:36:22.797Z,2.6
2019-02-02T04:37:22.689Z,2.5
2019-02-02T04:38:22.569Z,2.4
2019-02-02T04:39:22.475Z,2.4
2019-02-02T04:40:22.360Z,2.4
2019-02-02T04:41:22.669Z,2.4
2019-02-02T04:42:22.549Z,2.3
2019-02-02T04:43:22.449Z,2.3
2019-02-02T04:44:22.350Z,2.2
2019-02-02T04:45:22.245Z,2.2
2019-02-02T04:46:22.145Z,2.2
2019-02-02T04:47:22.037Z,2.2
2019-02-02T04:48:21.986Z,2.2
2019-02-02T04:49:21.877Z,2.2
2019-02-02T04:50:21.779Z,2.1
2019-02-02T04:51:22.081Z,2.1
2019-02-02T04:52:21.977Z,2.1
2019-02-02T04:53:21.849Z,2.1
2019-02-02T04:54:21.739Z,2.1
2019-02-02T04:55:21.645Z,2.1
2019-02-02T04:56:21.565Z,2.1
2019-02-02T04:57:21.446Z,2.1
2019-02-02T04:58:21.333Z,2.1
2019-02-02T04:59:30.099Z,2
2019-02-02T05:00:30.008Z,2
2019-02-02T05:01:30.442Z,2
2019-02-02T05:02:31.064Z,2
2019-02-02T05:03:30.957Z,2
2019-02-02T05:04:30.825Z,2
2019-02-02T05:05:30.711Z,2
2019-02-02T05:06:30.627Z,2
2019-02-02T05:07:30.523Z,1.9
2019-02-02T05:08:30.445Z,1.9
2019-02-02T05:09:30.544Z,1.9
2019-02-02T05:10:30.461Z,1.9
2019-02-02T05:11:30.961Z,1.9
2019-02-02T05:12:30.952Z,1.9
2019-02-02T05:13:30.835Z,1.9
2019-02-02T05:14:30.757Z,1.9
2019-02-02T05:15:30.658Z,1.9
2019-02-02T05:16:30.581Z,1.9
2019-02-02T05:17:30.516Z,1.9
2019-02-02T05:18:30.398Z,1.9
2019-02-02T05:19:30.282Z,1.9
2019-02-02T05:20:30.174Z,1.8
2019-02-02T05:21:30.729Z,1.8
2019-02-02T05:22:30.610Z,1.8
2019-02-02T05:23:30.492Z,1.8
2019-02-02T05:24:30.370Z,1.8
2019-02-02T05:25:30.278Z,1.8
2019-02-02T05:26:30.220Z,1.8
2019-02-02T05:27:30.243Z,1.8
2019-02-02T05:28:30.144Z,1.8
2019-02-02T05:29:42.265Z,1.8
2019-02-02T05:30:42.163Z,1.8
2019-02-02T05:31:42.658Z,1.8
2019-02-02T05:32:42.538Z,1.8
2019-02-02T05:33:42.424Z,1.8
2019-02-02T05:34:42.325Z,1.8
2019-02-02T05:35:42.215Z,1.9
2019-02-02T05:36:42.220Z,2
2019-02-02T05:40:41.424Z,2.3
2019-02-02T05:41:41.761Z,2.3
2019-02-02T05:42:41.681Z,2.4
2019-02-02T05:43:41.572Z,2.4
2019-02-02T05:44:41.481Z,2.4
2019-02-02T05:45:41.375Z,2.4
2019-02-02T05:46:41.400Z,2.4
2019-02-02T05:47:41.327Z,2.3
2019-02-02T05:48:41.223Z,2.3
2019-02-02T05:49:41.116Z,2.3
2019-02-02T05:50:41.001Z,2.3
2019-02-02T05:51:41.318Z,2.3
2019-02-02T05:52:41.228Z,2.3
2019-02-02T05:53:41.110Z,2.2
2019-02-02T05:54:40.992Z,2.2
2019-02-02T05:55:40.887Z,2.2
2019-02-02T05:56:40.790Z,2.2
2019-02-02T05:57:40.690Z,2.2
2019-02-02T05:58:40.580Z,2.2
2019-02-02T05:59:40.467Z,2.2
2019-02-02T06:00:52.060Z,2.1
2019-02-02T06:01:52.520Z,2.1
2019-02-02T06:02:52.514Z,2.1
2019-02-02T06:03:52.540Z,2.1
2019-02-02T06:04:52.432Z,2.1
2019-02-02T06:05:52.353Z,2.1
2019-02-02T06:06:52.260Z,2.1
2019-02-02T06:07:52.150Z,2.1
2019-02-02T06:08:52.114Z,2.1
2019-02-02T06:09:52.106Z,2.1
2019-02-02T06:10:52.024Z,2.1
2019-02-02T06:11:52.343Z,2.1
2019-02-02T06:12:52.247Z,2.1
2019-02-02T06:13:52.148Z,2
2019-02-02T06:14:52.018Z,2.1
2019-02-02T06:15:51.926Z,2.1
2019-02-02T06:16:51.814Z,2
2019-02-02T06:17:51.696Z,2.1
2019-02-02T06:18:51.621Z,2.1
2019-02-02T06:19:51.603Z,2
2019-02-02T06:20:51.521Z,2.1
2019-02-02T06:21:51.832Z,2.1
2019-02-02T06:22:51.724Z,2
2019-02-02T06:23:51.637Z,2
2019-02-02T06:24:53.410Z,2
2019-02-02T06:25:53.421Z,2.1
2019-02-02T06:26:53.329Z,2.2
2019-02-02T06:27:53.366Z,2.3
2019-02-02T06:28:53.286Z,2.4
2019-02-02T06:30:05.424Z,2.5
2019-02-02T06:31:05.338Z,2.5
2019-02-02T06:32:12.773Z,2.5
2019-02-02T06:33:12.666Z,2.5
2019-02-02T06:34:12.580Z,2.5
2019-02-02T06:35:12.458Z,2.5
2019-02-02T06:36:12.360Z,2.5
2019-02-02T06:37:12.246Z,2.5
2019-02-02T06:38:12.178Z,2.4
2019-02-02T06:39:12.101Z,2.4
2019-02-02T06:40:11.998Z,2.3
2019-02-02T06:41:11.887Z,2.3
2019-02-02T06:42:12.197Z,2.3
2019-02-02T06:43:12.180Z,2.3
2019-02-02T06:44:12.073Z,2.3
2019-02-02T06:45:11.983Z,2.3
2019-02-02T06:46:11.872Z,1.7
2019-02-02T06:47:11.834Z,2.3
2019-02-02T06:48:11.728Z,2.3
2019-02-02T06:49:11.607Z,2.4
2019-02-02T06:50:11.521Z,2.4
2019-02-02T06:52:11.599Z,2.5
2019-02-02T06:53:11.481Z,2.5
2019-02-02T06:54:11.374Z,2.6
2019-02-02T06:55:11.279Z,2.5
2019-02-02T06:56:11.200Z,2.6
2019-02-02T06:57:11.096Z,2.5
2019-02-02T06:58:10.980Z,2.5
2019-02-02T06:59:10.908Z,2.4
2019-02-02T07:00:16.928Z,2.4
2019-02-02T07:01:16.941Z,2.4
2019-02-02T07:02:17.276Z,2.3
2019-02-02T07:03:17.182Z,2.3
2019-02-02T07:04:17.069Z,2.3
2019-02-02T07:05:16.962Z,2.3
2019-02-02T07:06:16.850Z,2.3
2019-02-02T07:07:16.864Z,2.2
2019-02-02T07:08:16.754Z,2.3
2019-02-02T07:09:16.652Z,2.2
2019-02-02T07:10:16.548Z,2.2
2019-02-02T07:11:16.440Z,2.2
2019-02-02T07:12:16.774Z,2.1
2019-02-02T07:13:16.680Z,2.2
2019-02-02T07:14:16.578Z,2.2
2019-02-02T07:15:16.494Z,2.2
2019-02-02T07:16:16.375Z,2.2
2019-02-02T07:17:16.258Z,2.3
2019-02-02T07:18:16.169Z,2.4
2019-02-02T07:19:16.091Z,2.4
2019-02-02T07:21:15.731Z,2.5
2019-02-02T07:22:16.040Z,2.6
2019-02-02T07:23:15.934Z,2.6
2019-02-02T07:24:15.823Z,2.5
2019-02-02T07:25:15.776Z,2.6
2019-02-02T07:26:15.694Z,2.5
2019-02-02T07:27:15.645Z,2.5
2019-02-02T07:28:15.644Z,2.5
2019-02-02T07:29:15.540Z,2.4
2019-02-02T07:30:15.439Z,2.4
2019-02-02T07:31:29.421Z,2.4
2019-02-02T07:32:29.746Z,2.3
2019-02-02T07:33:29.631Z,2.3
2019-02-02T07:34:29.524Z,2.3
2019-02-02T07:35:29.415Z,2.3
2019-02-02T07:36:29.321Z,2.3
2019-02-02T07:37:29.220Z,2.2
2019-02-02T07:38:29.106Z,2.3
2019-02-02T07:39:28.995Z,2.3
2019-02-02T07:40:28.990Z,2.2
2019-02-02T07:41:28.880Z,2.2
2019-02-02T07:42:29.196Z,2.1
2019-02-02T07:43:29.080Z,2.1
2019-02-02T07:44:28.965Z,2.1
2019-02-02T07:45:28.869Z,2.1
2019-02-02T07:46:28.758Z,2.1
2019-02-02T07:47:28.674Z,2.2
2019-02-02T07:48:28.557Z,2.2
2019-02-02T07:50:28.187Z,2.4
2019-02-02T07:51:28.088Z,2.4
2019-02-02T07:52:28.398Z,2.5
2019-02-02T07:53:28.285Z,2.5
2019-02-02T07:54:28.301Z,2.4
2019-02-02T07:55:28.199Z,2.4
2019-02-02T07:56:28.084Z,2.4
2019-02-02T07:57:27.959Z,2.4
2019-02-02T07:58:27.848Z,2.3
2019-02-02T07:59:27.736Z,2.3
2019-02-02T08:00:39.587Z,2.3
2019-02-02T08:01:41.608Z,2.2
2019-02-02T08:02:42.054Z,2.2
2019-02-02T08:03:41.962Z,2.2
2019-02-02T08:04:41.849Z,2.2
2019-02-02T08:05:41.753Z,2.2
2019-02-02T08:07:41.391Z,2.2
2019-02-02T08:09:41.042Z,2.4
2019-02-02T08:10:40.977Z,2.3
2019-02-02T08:11:40.879Z,2.4
2019-02-02T08:12:41.191Z,2.5
2019-02-02T08:13:41.075Z,2.5
2019-02-02T08:14:40.973Z,2.5
2019-02-02T08:15:40.877Z,2.6
2019-02-02T08:16:40.927Z,2.4
2019-02-02T08:17:40.821Z,2.2
2019-02-02T08:18:40.715Z,2.1
2019-02-02T08:19:40.607Z,2.2
2019-02-02T08:20:40.495Z,2.2
2019-02-02T08:21:40.405Z,2.2
2019-02-02T08:22:40.880Z,2.2
2019-02-02T08:23:40.777Z,2.2
2019-02-02T08:24:40.659Z,2.3
2019-02-02T08:25:40.551Z,2.3
2019-02-02T08:26:40.483Z,2.2
2019-02-02T08:27:40.391Z,2.3
2019-02-02T08:28:40.358Z,2.3
2019-02-02T08:29:40.261Z,2.3
2019-02-02T08:30:53.297Z,2.3
2019-02-02T08:31:53.247Z,2.3
2019-02-02T08:32:53.779Z,2.3
2019-02-02T08:33:53.669Z,2.3
2019-02-02T08:34:53.792Z,2.3
2019-02-02T08:35:53.740Z,2.3
2019-02-02T08:36:53.642Z,2.3
2019-02-02T08:37:53.561Z,2.3
2019-02-02T08:38:53.487Z,2.2
2019-02-02T08:39:53.371Z,2.2
2019-02-02T08:40:53.283Z,2.2
2019-02-02T08:41:53.181Z,2.3
2019-02-02T08:42:53.953Z,2.2
2019-02-02T08:43:53.831Z,2.3
2019-02-02T08:44:53.740Z,2.2
2019-02-02T08:45:53.644Z,2.3
2019-02-02T08:46:53.553Z,2.2
2019-02-02T08:47:53.487Z,2.3
2019-02-02T08:48:53.375Z,2.3
2019-02-02T08:49:53.266Z,2.3
2019-02-02T08:50:53.309Z,2.3
2019-02-02T08:51:53.320Z,2.2
2019-02-02T08:52:54.192Z,2.2
2019-02-02T08:53:54.141Z,2.3
2019-02-02T08:54:54.045Z,2.3
2019-02-02T08:55:54.030Z,2.3
2019-02-02T08:56:54.096Z,2.4
2019-02-02T08:57:54.189Z,2.5
2019-02-02T08:58:54.196Z,2.6
2019-02-02T08:59:54.110Z,2.7
2019-02-02T09:01:04.976Z,2.7
2019-02-02T09:02:04.853Z,2.8
2019-02-02T09:03:05.273Z,2.8
2019-02-02T09:04:05.354Z,2.8
2019-02-02T09:05:05.834Z,2.8
2019-02-02T09:06:05.913Z,2.8
2019-02-02T09:07:06.043Z,2.8
2019-02-02T09:08:05.980Z,2.8
2019-02-02T09:09:05.889Z,2.8
2019-02-02T09:10:05.788Z,2.8
2019-02-02T09:11:05.955Z,2.8
2019-02-02T09:12:05.842Z,2.8
2019-02-02T09:13:06.178Z,2.8
2019-02-02T09:14:06.090Z,2.8
2019-02-02T09:15:06.009Z,2.8
2019-02-02T09:16:05.904Z,2.8
2019-02-02T09:17:05.809Z,2.8
2019-02-02T09:18:05.713Z,2.9
2019-02-02T09:19:05.849Z,2.9
2019-02-02T09:20:05.973Z,3
2019-02-02T09:21:05.867Z,3
2019-02-02T09:22:05.767Z,3.1
2019-02-02T09:23:07.356Z,3.1
2019-02-02T09:24:07.299Z,3.1
2019-02-02T09:25:07.411Z,3.1
2019-02-02T09:26:07.372Z,3.2
2019-02-02T09:27:07.286Z,3.2
2019-02-02T09:28:07.205Z,3.2
2019-02-02T09:29:10.129Z,3.1
2019-02-02T09:30:10.572Z,3.1
2019-02-02T09:31:16.676Z,3.1
2019-02-02T09:32:16.594Z,3
2019-02-02T09:33:17.105Z,3
2019-02-02T09:34:17.033Z,3
2019-02-02T09:35:16.935Z,3
2019-02-02T09:36:17.652Z,3
2019-02-02T09:37:17.583Z,3
2019-02-02T09:38:17.557Z,3
2019-02-02T09:39:17.490Z,3
2019-02-02T09:40:17.559Z,3
2019-02-02T09:41:17.455Z,3
2019-02-02T09:42:17.355Z,2.9
2019-02-02T09:43:17.783Z,2.9
2019-02-02T09:44:18.755Z,2.9
2019-02-02T09:45:19.705Z,2.9
2019-02-02T09:46:21.107Z,3
2019-02-02T09:47:24.187Z,3
2019-02-02T09:48:26.485Z,3
2019-02-02T09:49:26.537Z,2.9
2019-02-02T09:50:26.657Z,2.9
2019-02-02T09:51:26.677Z,2.9
2019-02-02T09:52:26.573Z,2.9
2019-02-02T09:53:26.907Z,2.9
2019-02-02T09:54:27.638Z,2.9
2019-02-02T09:55:27.548Z,2.9
2019-02-02T09:56:27.694Z,2.9
2019-02-02T09:57:28.632Z,2.9
2019-02-02T09:58:31.538Z,2.9
2019-02-02T09:59:31.425Z,2.9
2019-02-02T10:00:31.494Z,3
2019-02-02T10:01:31.397Z,3
2019-02-02T10:02:31.295Z,2.9
2019-02-02T10:03:31.981Z,2.9
2019-02-02T10:04:31.900Z,2.9
2019-02-02T10:05:31.805Z,2.9
2019-02-02T10:06:31.883Z,3
2019-02-02T10:07:31.790Z,3
2019-02-02T10:08:31.698Z,3
2019-02-02T10:09:31.693Z,3
2019-02-02T10:10:31.587Z,3
2019-02-02T10:11:31.622Z,3
2019-02-02T10:12:31.561Z,3.1
2019-02-02T10:13:32.004Z,3.1
2019-02-02T10:14:31.920Z,3.1
2019-02-02T10:15:31.827Z,3.1
2019-02-02T10:16:31.765Z,3.2
2019-02-02T10:17:31.703Z,3.2
2019-02-02T10:18:31.599Z,3.3
2019-02-02T10:19:31.625Z,3.4
2019-02-02T10:20:31.557Z,3.4
2019-02-02T10:21:31.559Z,3.5
2019-02-02T10:22:31.498Z,3.6
2019-02-02T10:23:32.038Z,3.7
2019-02-02T10:24:31.942Z,3.7
2019-02-02T10:25:31.852Z,3.8
2019-02-02T10:26:31.755Z,3.9
2019-02-02T10:27:31.666Z,3.9
2019-02-02T10:28:31.588Z,4
2019-02-02T10:29:31.506Z,3.9
2019-02-02T10:30:31.399Z,3.9
2019-02-02T10:31:40.421Z,3.9
2019-02-02T10:32:43.324Z,3.9
2019-02-02T10:33:43.841Z,3.9
2019-02-02T10:34:43.777Z,3.9
2019-02-02T10:35:43.672Z,3.9
2019-02-02T10:36:43.582Z,3.9
2019-02-02T10:37:43.619Z,3.9
2019-02-02T10:38:43.523Z,4
2019-02-02T10:39:43.425Z,4
2019-02-02T10:40:43.325Z,3.9
2019-02-02T10:41:43.244Z,3.9
2019-02-02T10:42:43.145Z,3.9
2019-02-02T10:43:43.717Z,4
2019-02-02T10:44:43.659Z,4
2019-02-02T10:45:43.556Z,4.1
2019-02-02T10:46:43.458Z,4.1
2019-02-02T10:47:43.679Z,4.1
2019-02-02T10:48:43.586Z,4.1
2019-02-02T10:49:43.494Z,4.2
2019-02-02T10:50:43.387Z,4.2
2019-02-02T10:51:43.277Z,4.2
2019-02-02T10:52:43.175Z,4.2
2019-02-02T10:53:43.664Z,4.1
2019-02-02T10:54:43.586Z,4.1
2019-02-02T10:55:43.491Z,4.1
2019-02-02T10:56:43.422Z,4.2
2019-02-02T10:57:43.324Z,4.2
2019-02-02T10:58:43.205Z,4.2
2019-02-02T10:59:43.158Z,4.3
2019-02-02T11:00:43.056Z,4.3
2019-02-02T11:01:51.894Z,4.4
2019-02-02T11:02:51.815Z,4.5
2019-02-02T11:03:52.210Z,4.5
2019-02-02T11:04:54.410Z,4.5
2019-02-02T11:05:54.703Z,4.6
2019-02-02T11:06:55.357Z,4.6
2019-02-02T11:07:55.856Z,4.6
2019-02-02T11:08:56.199Z,4.5
2019-02-02T11:09:56.394Z,4.5
2019-02-02T11:10:56.922Z,4.6
2019-02-02T11:11:57.081Z,4.7
2019-02-02T11:12:57.583Z,4.7
2019-02-02T11:13:58.659Z,4.7
2019-02-02T11:14:58.945Z,4.7
2019-02-02T11:15:59.225Z,4.7
2019-02-02T11:16:59.632Z,4.6
2019-02-02T11:18:00.305Z,4.6
2019-02-02T11:19:00.784Z,4.6
2019-02-02T11:20:01.065Z,4.5
2019-02-02T11:21:01.809Z,4.5
2019-02-02T11:22:02.459Z,4.4
2019-02-02T11:23:02.948Z,4.3
2019-02-02T11:24:04.320Z,4.3
2019-02-02T11:25:04.578Z,4.2
2019-02-02T11:26:05.184Z,4.2
2019-02-02T11:27:05.311Z,4.2
2019-02-02T11:28:05.673Z,4.2
2019-02-02T11:29:06.283Z,4.2
2019-02-02T11:30:06.634Z,4.1
2019-02-02T11:31:06.648Z,4
2019-02-02T11:32:07.566Z,4
2019-02-02T11:33:07.593Z,3.9
2019-02-02T11:34:08.886Z,3.9
2019-02-02T11:35:08.790Z,3.8
2019-02-02T11:36:11.532Z,3.9
2019-02-02T11:37:14.476Z,3.9
2019-02-02T11:38:14.389Z,3.9
2019-02-02T11:39:14.298Z,3.9
2019-02-02T11:40:14.204Z,3.9
2019-02-02T11:41:14.107Z,3.9
2019-02-02T11:42:14.142Z,3.9
2019-02-02T11:43:14.050Z,3.9
2019-02-02T11:44:14.389Z,3.9
2019-02-02T11:45:14.298Z,3.9
2019-02-02T11:46:14.721Z,4
2019-02-02T11:47:14.632Z,4
2019-02-02T11:48:15.713Z,3.9
2019-02-02T11:49:15.628Z,3.8
2019-02-02T11:50:15.555Z,3.9
2019-02-02T11:51:15.638Z,3.8
2019-02-02T11:52:15.546Z,3.8
2019-02-02T11:53:15.611Z,3.8
2019-02-02T11:54:16.319Z,3.7
2019-02-02T11:55:16.244Z,3.7
2019-02-02T11:56:16.138Z,3.7
2019-02-02T11:57:16.048Z,3.7
2019-02-02T11:58:15.956Z,3.8
2019-02-02T11:59:15.864Z,3.9
2019-02-02T12:00:17.046Z,3.8
2019-02-02T12:01:16.984Z,3.9
2019-02-02T12:02:16.897Z,3.9
2019-02-02T12:03:16.824Z,3.9
2019-02-02T12:04:17.162Z,3.9
2019-02-02T12:05:17.292Z,3.9
2019-02-02T12:06:17.189Z,4
2019-02-02T12:07:17.096Z,4
2019-02-02T12:08:17.014Z,4
2019-02-02T12:09:16.900Z,4
2019-02-02T12:10:16.808Z,4
2019-02-02T12:11:16.701Z,4.1
2019-02-02T12:12:16.582Z,4.1
2019-02-02T12:13:16.640Z,4.1
2019-02-02T12:14:16.984Z,4.2
2019-02-02T12:15:16.907Z,4.1
2019-02-02T12:16:17.010Z,4.1
2019-02-02T12:17:16.930Z,4.1
2019-02-02T12:18:16.851Z,4.2
2019-02-02T12:19:16.768Z,4.2
2019-02-02T12:20:16.817Z,4.3
2019-02-02T12:21:16.731Z,4.4
2019-02-02T12:22:16.632Z,4.4
2019-02-02T12:23:16.546Z,4.4
2019-02-02T12:24:17.966Z,4.5
2019-02-02T12:25:17.868Z,4.5
2019-02-02T12:26:17.781Z,4.5
2019-02-02T12:27:17.908Z,4.5
2019-02-02T12:28:17.838Z,4.4
2019-02-02T12:29:17.844Z,4.5
2019-02-02T12:30:17.774Z,4.4
2019-02-02T12:31:17.661Z,4.5
2019-02-02T12:32:27.490Z,4.4
2019-02-02T12:33:27.416Z,4.4
2019-02-02T12:34:27.776Z,4.5
2019-02-02T12:35:27.692Z,4.5
2019-02-02T12:36:27.611Z,4.5
2019-02-02T12:37:27.512Z,4.5
2019-02-02T12:38:27.440Z,4.5
2019-02-02T12:39:27.361Z,4.6
2019-02-02T12:40:27.276Z,4.6
2019-02-02T12:41:27.179Z,4.5
2019-02-02T12:42:27.084Z,4.6
2019-02-02T12:43:27.043Z,4.6
2019-02-02T12:44:27.386Z,4.6
2019-02-02T12:45:27.306Z,4.6
2019-02-02T12:46:27.224Z,4.6
2019-02-02T12:47:27.125Z,4.7
2019-02-02T12:48:27.039Z,4.7
2019-02-02T12:49:26.930Z,4.7
2019-02-02T12:50:26.918Z,4.7
2019-02-02T12:51:26.831Z,4.7
2019-02-02T12:52:26.715Z,4.8
2019-02-02T12:53:26.649Z,4.8
2019-02-02T12:54:27.005Z,4.7
2019-02-02T12:55:26.902Z,4.8
2019-02-02T12:56:26.820Z,4.8
2019-02-02T12:57:26.716Z,4.8
2019-02-02T12:58:26.608Z,4.8
2019-02-02T12:59:26.500Z,4.8
2019-02-02T13:00:26.397Z,4.8
2019-02-02T13:01:26.310Z,4.8
2019-02-02T13:02:38.634Z,4.8
2019-02-02T13:03:38.603Z,4.9
2019-02-02T13:04:39.153Z,4.9
2019-02-02T13:05:39.862Z,4.9
2019-02-02T13:06:42.577Z,4.9
2019-02-02T13:07:42.477Z,4.8
2019-02-02T13:08:42.419Z,4.9
2019-02-02T13:09:42.308Z,4.9
2019-02-02T13:10:42.306Z,4.9
2019-02-02T13:11:42.253Z,4.9
2019-02-02T13:12:42.154Z,4.9
2019-02-02T13:13:43.406Z,4.9
2019-02-02T13:14:43.775Z,4.9
2019-02-02T13:15:43.664Z,4.9
2019-02-02T13:16:43.613Z,4.9
2019-02-02T13:17:43.503Z,5
2019-02-02T13:18:46.304Z,5
2019-02-02T13:19:46.213Z,5
2019-02-02T13:20:46.138Z,5
2019-02-02T13:21:46.213Z,5
2019-02-02T13:22:46.096Z,5.1
2019-02-02T13:23:46.008Z,5.1
2019-02-02T13:24:46.374Z,5
2019-02-02T13:25:46.289Z,5
2019-02-02T13:26:46.200Z,5
2019-02-02T13:27:46.116Z,5
2019-02-02T13:28:46.243Z,5.1
2019-02-02T13:29:46.131Z,5.1
2019-02-02T13:30:46.139Z,5.2
2019-02-02T13:31:46.284Z,5.2
2019-02-02T13:32:50.767Z,5.3
2019-02-02T13:33:50.673Z,5.3
2019-02-02T13:34:51.033Z,5.3
2019-02-02T13:35:50.926Z,5.3
2019-02-02T13:36:53.838Z,5.3
2019-02-02T13:37:58.027Z,5.4
2019-02-02T13:38:57.948Z,5.4
2019-02-02T13:40:06.543Z,5.4
2019-02-02T13:41:06.437Z,5.4
2019-02-02T13:42:06.357Z,5.3
2019-02-02T13:43:06.294Z,5.3
2019-02-02T13:44:06.202Z,5.3
2019-02-02T13:45:07.761Z,5.3
2019-02-02T13:46:07.698Z,5.2
2019-02-02T13:47:07.603Z,5.2
2019-02-02T13:48:07.677Z,5.2
2019-02-02T13:49:07.836Z,5.2
2019-02-02T13:50:08.354Z,5.2
2019-02-02T13:51:08.298Z,5.2
2019-02-02T13:52:08.214Z,5.3
2019-02-02T13:53:08.847Z,5.3
2019-02-02T13:54:08.759Z,5.3
2019-02-02T13:55:09.095Z,5.4
2019-02-02T13:56:10.132Z,5.3
2019-02-02T13:57:10.003Z,5.4
2019-02-02T13:58:09.920Z,5.4
2019-02-02T13:59:09.886Z,5.4
2019-02-02T14:00:09.868Z,5.3
2019-02-02T14:01:09.760Z,5.3
2019-02-02T14:02:10.020Z,5.2
2019-02-02T14:03:09.927Z,5.2
2019-02-02T14:04:09.860Z,5.2
2019-02-02T14:05:10.448Z,5.1
2019-02-02T14:06:10.380Z,5.1
2019-02-02T14:07:18.883Z,5.1
2019-02-02T14:08:18.789Z,5.1
2019-02-02T14:09:18.843Z,5
2019-02-02T14:10:18.750Z,5
2019-02-02T14:11:18.653Z,5
2019-02-02T14:12:18.695Z,4.9
2019-02-02T14:13:18.609Z,4.9
2019-02-02T14:14:18.511Z,4.8
2019-02-02T14:15:18.873Z,4.8
2019-02-02T14:16:18.973Z,4.8
2019-02-02T14:17:18.875Z,4.8
2019-02-02T14:18:18.771Z,4.9
2019-02-02T14:19:18.795Z,4.9
2019-02-02T14:20:18.710Z,4.8
2019-02-02T14:21:18.617Z,4.8
2019-02-02T14:22:18.505Z,4.8
2019-02-02T14:23:18.423Z,4.8